sensor_id;sensor_type;location;lat;lon;timestamp;temperature;humidity
15705;DHT22;7952;48.396;12.806;2023-02-10T00:00:30;0.60;45.70
15705;DHT22;7952;48.396;12.806;2023-02-10T00:02:55;0.60;45.70
15705;DHT22;7952;48.396;12.806;2023-02-10T00:05:21;0.60;45.60
15705;DHT22;7952;48.396;12.806;2023-02-10T00:07:46;0.60;45.70
15705;DHT22;7952;48.396;12.806;2023-02-10T00:10:12;0.50;45.70
15705;DHT22;7952;48.396;12.806;2023-02-10T00:12:38;0.50;45.70
15705;DHT22;7952;48.396;12.806;2023-02-10T00:15:04;0.50;45.80
15705;DHT22;7952;48.396;12.806;2023-02-10T00:17:30;0.50;45.80
15705;DHT22;7952;48.396;12.806;2023-02-10T00:19:55;0.50;45.80
15705;DHT22;7952;48.396;12.806;2023-02-10T00:22:21;0.50;45.70
15705;DHT22;7952;48.396;12.806;2023-02-10T00:24:46;0.50;45.80
15705;DHT22;7952;48.396;12.806;2023-02-10T00:27:12;0.50;45.80
15705;DHT22;7952;48.396;12.806;2023-02-10T00:29:37;0.40;45.70
15705;DHT22;7952;48.396;12.806;2023-02-10T00:32:03;0.40;45.80
15705;DHT22;7952;48.396;12.806;2023-02-10T00:34:29;0.40;45.80
15705;DHT22;7952;48.396;12.806;2023-02-10T00:36:54;0.40;45.80
15705;DHT22;7952;48.396;12.806;2023-02-10T00:39:20;0.30;45.70
15705;DHT22;7952;48.396;12.806;2023-02-10T00:41:45;0.30;45.80
15705;DHT22;7952;48.396;12.806;2023-02-10T00:44:11;0.30;45.90
15705;DHT22;7952;48.396;12.806;2023-02-10T00:46:37;0.30;45.90
15705;DHT22;7952;48.396;12.806;2023-02-10T00:49:02;0.30;46.50
15705;DHT22;7952;48.396;12.806;2023-02-10T00:51:28;0.30;45.90
15705;DHT22;7952;48.396;12.806;2023-02-10T00:53:53;0.30;45.80
15705;DHT22;7952;48.396;12.806;2023-02-10T00:56:20;0.30;45.80
15705;DHT22;7952;48.396;12.806;2023-02-10T00:58:46;0.30;45.90
15705;DHT22;7952;48.396;12.806;2023-02-10T01:01:12;0.30;45.90
15705;DHT22;7952;48.396;12.806;2023-02-10T01:03:38;0.30;45.90
15705;DHT22;7952;48.396;12.806;2023-02-10T01:06:04;0.30;45.90
15705;DHT22;7952;48.396;12.806;2023-02-10T01:08:30;0.30;45.90
15705;DHT22;7952;48.396;12.806;2023-02-10T01:11:05;0.30;45.90
15705;DHT22;7952;48.396;12.806;2023-02-10T01:13:31;0.30;45.90
15705;DHT22;7952;48.396;12.806;2023-02-10T01:15:59;0.30;45.90
15705;DHT22;7952;48.396;12.806;2023-02-10T01:18:24;0.30;45.90
15705;DHT22;7952;48.396;12.806;2023-02-10T01:20:50;0.20;45.90
15705;DHT22;7952;48.396;12.806;2023-02-10T01:23:16;0.20;45.90
15705;DHT22;7952;48.396;12.806;2023-02-10T01:25:42;0.20;45.90
15705;DHT22;7952;48.396;12.806;2023-02-10T01:28:09;0.20;46.00
15705;DHT22;7952;48.396;12.806;2023-02-10T01:30:34;0.20;46.00
15705;DHT22;7952;48.396;12.806;2023-02-10T01:33:00;0.20;46.00
15705;DHT22;7952;48.396;12.806;2023-02-10T01:35:25;0.20;46.00
15705;DHT22;7952;48.396;12.806;2023-02-10T01:37:51;0.20;46.00
15705;DHT22;7952;48.396;12.806;2023-02-10T01:40:17;0.20;46.10
15705;DHT22;7952;48.396;12.806;2023-02-10T01:42:42;0.20;46.00
15705;DHT22;7952;48.396;12.806;2023-02-10T01:45:20;0.20;46.00
15705;DHT22;7952;48.396;12.806;2023-02-10T01:47:50;0.20;46.10
15705;DHT22;7952;48.396;12.806;2023-02-10T01:50:18;0.10;46.00
15705;DHT22;7952;48.396;12.806;2023-02-10T01:52:45;0.20;46.10
15705;DHT22;7952;48.396;12.806;2023-02-10T01:55:15;0.20;46.10
15705;DHT22;7952;48.396;12.806;2023-02-10T01:57:43;0.20;46.10
15705;DHT22;7952;48.396;12.806;2023-02-10T02:00:11;0.10;46.00
15705;DHT22;7952;48.396;12.806;2023-02-10T02:02:37;0.10;46.00
15705;DHT22;7952;48.396;12.806;2023-02-10T02:05:06;0.10;46.10
15705;DHT22;7952;48.396;12.806;2023-02-10T02:07:35;0.10;46.10
15705;DHT22;7952;48.396;12.806;2023-02-10T02:10:04;0.10;46.10
15705;DHT22;7952;48.396;12.806;2023-02-10T02:15:35;0.10;46.20
15705;DHT22;7952;48.396;12.806;2023-02-10T02:18:09;0.10;46.10
15705;DHT22;7952;48.396;12.806;2023-02-10T02:21:03;0.10;46.10
15705;DHT22;7952;48.396;12.806;2023-02-10T02:29:44;0.10;46.20
15705;DHT22;7952;48.396;12.806;2023-02-10T02:32:22;0.00;46.10
15705;DHT22;7952;48.396;12.806;2023-02-10T02:35:05;0.00;46.80
15705;DHT22;7952;48.396;12.806;2023-02-10T02:37:41;0.00;46.20
15705;DHT22;7952;48.396;12.806;2023-02-10T02:40:10;0.00;46.20
15705;DHT22;7952;48.396;12.806;2023-02-10T02:42:35;0.00;46.20
15705;DHT22;7952;48.396;12.806;2023-02-10T02:45:17;0.00;46.20
15705;DHT22;7952;48.396;12.806;2023-02-10T02:48:03;0.00;46.30
15705;DHT22;7952;48.396;12.806;2023-02-10T02:50:35;0.00;46.30
15705;DHT22;7952;48.396;12.806;2023-02-10T03:01:05;0.00;46.30
15705;DHT22;7952;48.396;12.806;2023-02-10T03:03:35;0.00;46.30
15705;DHT22;7952;48.396;12.806;2023-02-10T03:06:01;0.00;46.30
15705;DHT22;7952;48.396;12.806;2023-02-10T03:08:29;0.00;46.30
15705;DHT22;7952;48.396;12.806;2023-02-10T03:10:56;0.00;46.40
15705;DHT22;7952;48.396;12.806;2023-02-10T03:13:21;0.00;46.40
15705;DHT22;7952;48.396;12.806;2023-02-10T03:15:47;0.00;46.40
15705;DHT22;7952;48.396;12.806;2023-02-10T03:18:13;0.00;46.40
15705;DHT22;7952;48.396;12.806;2023-02-10T03:20:39;0.00;46.40
15705;DHT22;7952;48.396;12.806;2023-02-10T03:23:05;0.00;47.00
15705;DHT22;7952;48.396;12.806;2023-02-10T03:25:30;0.00;46.40
15705;DHT22;7952;48.396;12.806;2023-02-10T03:27:56;0.10;46.40
15705;DHT22;7952;48.396;12.806;2023-02-10T03:30:22;0.10;46.40
15705;DHT22;7952;48.396;12.806;2023-02-10T03:32:47;0.10;46.40
15705;DHT22;7952;48.396;12.806;2023-02-10T03:35:14;0.10;46.40
15705;DHT22;7952;48.396;12.806;2023-02-10T03:37:39;0.20;46.50
15705;DHT22;7952;48.396;12.806;2023-02-10T03:40:05;0.20;46.40
15705;DHT22;7952;48.396;12.806;2023-02-10T03:42:31;0.20;46.40
15705;DHT22;7952;48.396;12.806;2023-02-10T03:44:56;0.30;46.40
15705;DHT22;7952;48.396;12.806;2023-02-10T03:47:22;0.30;46.40
15705;DHT22;7952;48.396;12.806;2023-02-10T03:49:47;0.30;46.60
15705;DHT22;7952;48.396;12.806;2023-02-10T03:52:13;0.20;46.20
15705;DHT22;7952;48.396;12.806;2023-02-10T03:54:38;0.30;46.30
15705;DHT22;7952;48.396;12.806;2023-02-10T03:57:04;0.30;46.30
15705;DHT22;7952;48.396;12.806;2023-02-10T03:59:31;0.30;46.30
15705;DHT22;7952;48.396;12.806;2023-02-10T04:01:57;0.30;46.30
15705;DHT22;7952;48.396;12.806;2023-02-10T04:04:22;0.20;46.20
15705;DHT22;7952;48.396;12.806;2023-02-10T04:06:48;0.20;46.30
15705;DHT22;7952;48.396;12.806;2023-02-10T04:09:13;0.20;46.30
15705;DHT22;7952;48.396;12.806;2023-02-10T04:11:39;0.20;46.30
15705;DHT22;7952;48.396;12.806;2023-02-10T04:14:04;0.20;46.30
15705;DHT22;7952;48.396;12.806;2023-02-10T04:16:30;0.20;46.40
15705;DHT22;7952;48.396;12.806;2023-02-10T04:18:57;0.20;46.40
15705;DHT22;7952;48.396;12.806;2023-02-10T04:21:23;0.20;46.50
15705;DHT22;7952;48.396;12.806;2023-02-10T04:23:50;0.20;46.50
15705;DHT22;7952;48.396;12.806;2023-02-10T04:26:16;0.20;46.50
15705;DHT22;7952;48.396;12.806;2023-02-10T04:28:41;0.30;46.50
15705;DHT22;7952;48.396;12.806;2023-02-10T04:31:07;0.30;46.50
15705;DHT22;7952;48.396;12.806;2023-02-10T04:33:33;0.30;46.50
15705;DHT22;7952;48.396;12.806;2023-02-10T04:35:59;0.30;46.50
15705;DHT22;7952;48.396;12.806;2023-02-10T04:38:28;0.30;46.50
15705;DHT22;7952;48.396;12.806;2023-02-10T04:40:53;0.30;46.50
15705;DHT22;7952;48.396;12.806;2023-02-10T04:43:19;0.30;46.50
15705;DHT22;7952;48.396;12.806;2023-02-10T04:45:44;0.30;46.40
15705;DHT22;7952;48.396;12.806;2023-02-10T04:48:10;0.30;46.40
15705;DHT22;7952;48.396;12.806;2023-02-10T04:50:37;0.30;46.40
15705;DHT22;7952;48.396;12.806;2023-02-10T04:53:03;0.30;46.50
15705;DHT22;7952;48.396;12.806;2023-02-10T04:55:28;0.30;46.50
15705;DHT22;7952;48.396;12.806;2023-02-10T04:57:54;0.20;46.40
15705;DHT22;7952;48.396;12.806;2023-02-10T05:00:19;0.20;46.40
15705;DHT22;7952;48.396;12.806;2023-02-10T05:02:45;0.20;46.50
15705;DHT22;7952;48.396;12.806;2023-02-10T05:05:12;0.10;46.40
15705;DHT22;7952;48.396;12.806;2023-02-10T05:07:38;0.10;46.50
15705;DHT22;7952;48.396;12.806;2023-02-10T05:10:04;0.10;46.60
15705;DHT22;7952;48.396;12.806;2023-02-10T05:12:29;0.00;46.50
15705;DHT22;7952;48.396;12.806;2023-02-10T05:14:55;0.00;46.50
15705;DHT22;7952;48.396;12.806;2023-02-10T05:17:20;0.00;46.60
15705;DHT22;7952;48.396;12.806;2023-02-10T05:19:46;0.00;46.60
15705;DHT22;7952;48.396;12.806;2023-02-10T05:22:11;0.00;46.60
15705;DHT22;7952;48.396;12.806;2023-02-10T05:24:37;-0.10;46.50
15705;DHT22;7952;48.396;12.806;2023-02-10T05:27:03;-0.10;46.60
15705;DHT22;7952;48.396;12.806;2023-02-10T05:29:28;-0.10;46.60
15705;DHT22;7952;48.396;12.806;2023-02-10T05:31:54;-0.20;46.60
15705;DHT22;7952;48.396;12.806;2023-02-10T05:34:20;-0.20;46.60
15705;DHT22;7952;48.396;12.806;2023-02-10T05:36:45;-0.20;46.70
15705;DHT22;7952;48.396;12.806;2023-02-10T05:39:11;-0.30;46.70
15705;DHT22;7952;48.396;12.806;2023-02-10T05:41:50;-0.30;46.70
15705;DHT22;7952;48.396;12.806;2023-02-10T05:44:16;-0.30;46.70
15705;DHT22;7952;48.396;12.806;2023-02-10T05:46:41;-0.30;46.80
15705;DHT22;7952;48.396;12.806;2023-02-10T05:49:07;-0.30;46.80
15705;DHT22;7952;48.396;12.806;2023-02-10T05:51:32;-0.40;46.80
15705;DHT22;7952;48.396;12.806;2023-02-10T05:53:58;-0.40;46.80
15705;DHT22;7952;48.396;12.806;2023-02-10T05:56:23;-0.40;46.90
15705;DHT22;7952;48.396;12.806;2023-02-10T05:58:49;-0.40;46.90
15705;DHT22;7952;48.396;12.806;2023-02-10T06:01:15;-0.40;46.90
15705;DHT22;7952;48.396;12.806;2023-02-10T06:03:40;-0.40;46.90
15705;DHT22;7952;48.396;12.806;2023-02-10T06:06:06;-0.40;47.00
15705;DHT22;7952;48.396;12.806;2023-02-10T06:08:31;-0.40;47.00
15705;DHT22;7952;48.396;12.806;2023-02-10T06:10:57;-0.50;46.90
15705;DHT22;7952;48.396;12.806;2023-02-10T06:13:22;-0.40;47.00
15705;DHT22;7952;48.396;12.806;2023-02-10T06:15:48;-0.40;47.00
15705;DHT22;7952;48.396;12.806;2023-02-10T06:18:14;-0.50;47.00
15705;DHT22;7952;48.396;12.806;2023-02-10T06:20:39;-0.40;47.10
15705;DHT22;7952;48.396;12.806;2023-02-10T06:23:05;-0.40;47.10
15705;DHT22;7952;48.396;12.806;2023-02-10T06:25:30;-0.40;47.10
15705;DHT22;7952;48.396;12.806;2023-02-10T06:27:56;-0.40;47.10
15705;DHT22;7952;48.396;12.806;2023-02-10T06:30:21;-0.40;47.10
15705;DHT22;7952;48.396;12.806;2023-02-10T06:32:47;-0.30;47.20
15705;DHT22;7952;48.396;12.806;2023-02-10T06:35:13;-0.40;47.10
15705;DHT22;7952;48.396;12.806;2023-02-10T06:37:38;-0.30;47.10
15705;DHT22;7952;48.396;12.806;2023-02-10T06:40:05;-0.30;47.10
15705;DHT22;7952;48.396;12.806;2023-02-10T06:42:31;-0.30;47.10
15705;DHT22;7952;48.396;12.806;2023-02-10T06:44:56;-0.20;47.20
15705;DHT22;7952;48.396;12.806;2023-02-10T06:47:22;-0.20;47.30
15705;DHT22;7952;48.396;12.806;2023-02-10T06:49:47;-0.20;47.20
15705;DHT22;7952;48.396;12.806;2023-02-10T06:52:13;-0.10;47.40
15705;DHT22;7952;48.396;12.806;2023-02-10T06:54:38;0.10;47.70
15705;DHT22;7952;48.396;12.806;2023-02-10T06:57:04;0.30;48.20
15705;DHT22;7952;48.396;12.806;2023-02-10T06:59:32;0.50;48.40
15705;DHT22;7952;48.396;12.806;2023-02-10T07:01:57;0.80;48.80
15705;DHT22;7952;48.396;12.806;2023-02-10T07:04:30;1.20;49.10
15705;DHT22;7952;48.396;12.806;2023-02-10T07:06:57;1.60;49.20
15705;DHT22;7952;48.396;12.806;2023-02-10T07:09:23;2.00;49.40
15705;DHT22;7952;48.396;12.806;2023-02-10T07:11:49;2.40;49.40
15705;DHT22;7952;48.396;12.806;2023-02-10T07:14:15;2.80;49.30
15705;DHT22;7952;48.396;12.806;2023-02-10T07:16:41;3.20;49.10
15705;DHT22;7952;48.396;12.806;2023-02-10T07:19:07;3.60;49.10
15705;DHT22;7952;48.396;12.806;2023-02-10T07:21:32;4.00;49.10
15705;DHT22;7952;48.396;12.806;2023-02-10T07:23:58;4.40;49.00
15705;DHT22;7952;48.396;12.806;2023-02-10T07:26:26;4.90;49.10
15705;DHT22;7952;48.396;12.806;2023-02-10T07:28:51;5.30;49.10
15705;DHT22;7952;48.396;12.806;2023-02-10T07:31:17;5.70;49.00
15705;DHT22;7952;48.396;12.806;2023-02-10T07:33:43;6.10;49.00
15705;DHT22;7952;48.396;12.806;2023-02-10T07:36:08;6.40;48.80
15705;DHT22;7952;48.396;12.806;2023-02-10T07:38:35;6.80;48.80
15705;DHT22;7952;48.396;12.806;2023-02-10T07:41:01;7.20;48.80
15705;DHT22;7952;48.396;12.806;2023-02-10T07:43:27;7.50;48.80
15705;DHT22;7952;48.396;12.806;2023-02-10T07:45:52;7.80;48.80
15705;DHT22;7952;48.396;12.806;2023-02-10T07:48:18;8.10;48.70
15705;DHT22;7952;48.396;12.806;2023-02-10T07:50:46;8.40;48.60
15705;DHT22;7952;48.396;12.806;2023-02-10T07:53:12;8.70;48.50
15705;DHT22;7952;48.396;12.806;2023-02-10T07:55:37;9.00;48.50
15705;DHT22;7952;48.396;12.806;2023-02-10T07:58:04;9.20;48.40
15705;DHT22;7952;48.396;12.806;2023-02-10T08:00:30;9.50;48.50
15705;DHT22;7952;48.396;12.806;2023-02-10T08:02:56;9.70;48.30
15705;DHT22;7952;48.396;12.806;2023-02-10T08:05:21;9.90;48.30
15705;DHT22;7952;48.396;12.806;2023-02-10T08:07:48;10.10;47.30
15705;DHT22;7952;48.396;12.806;2023-02-10T08:10:14;10.30;47.40
15705;DHT22;7952;48.396;12.806;2023-02-10T08:12:39;10.50;47.30
15705;DHT22;7952;48.396;12.806;2023-02-10T08:15:19;10.70;47.20
15705;DHT22;7952;48.396;12.806;2023-02-10T08:18:18;10.90;47.30
15705;DHT22;7952;48.396;12.806;2023-02-10T08:21:12;11.10;47.50
15705;DHT22;7952;48.396;12.806;2023-02-10T08:24:25;11.40;47.60
15705;DHT22;7952;48.396;12.806;2023-02-10T08:27:10;11.60;47.50
15705;DHT22;7952;48.396;12.806;2023-02-10T08:29:35;11.90;47.70
15705;DHT22;7952;48.396;12.806;2023-02-10T08:32:01;12.20;47.80
15705;DHT22;7952;48.396;12.806;2023-02-10T08:34:27;12.40;47.90
15705;DHT22;7952;48.396;12.806;2023-02-10T08:36:53;12.60;47.90
15705;DHT22;7952;48.396;12.806;2023-02-10T08:39:19;12.90;47.90
15705;DHT22;7952;48.396;12.806;2023-02-10T08:59:34;13.90;47.30
15705;DHT22;7952;48.396;12.806;2023-02-10T11:02:15;14.00;44.80
15705;DHT22;7952;48.396;12.806;2023-02-10T11:18:33;12.70;44.90
15705;DHT22;7952;48.396;12.806;2023-02-10T11:21:08;12.40;45.40
15705;DHT22;7952;48.396;12.806;2023-02-10T11:23:49;12.30;45.00
15705;DHT22;7952;48.396;12.806;2023-02-10T11:26:23;12.20;45.20
15705;DHT22;7952;48.396;12.806;2023-02-10T11:28:49;12.10;45.30
15705;DHT22;7952;48.396;12.806;2023-02-10T11:31:31;11.90;45.00
15705;DHT22;7952;48.396;12.806;2023-02-10T11:36:45;11.70;45.10
15705;DHT22;7952;48.396;12.806;2023-02-10T11:39:28;11.60;45.10
15705;DHT22;7952;48.396;12.806;2023-02-10T11:49:29;11.40;45.10
15705;DHT22;7952;48.396;12.806;2023-02-10T11:51:59;11.30;45.00
15705;DHT22;7952;48.396;12.806;2023-02-10T11:54:27;11.20;45.20
15705;DHT22;7952;48.396;12.806;2023-02-10T12:06:49;11.10;45.30
15705;DHT22;7952;48.396;12.806;2023-02-10T12:09:31;11.10;45.30
15705;DHT22;7952;48.396;12.806;2023-02-10T12:12:38;11.00;45.10
15705;DHT22;7952;48.396;12.806;2023-02-10T12:26:53;11.00;45.00
15705;DHT22;7952;48.396;12.806;2023-02-10T12:32:38;10.90;44.90
15705;DHT22;7952;48.396;12.806;2023-02-10T12:41:33;10.80;44.70
15705;DHT22;7952;48.396;12.806;2023-02-10T12:44:09;10.80;44.70
15705;DHT22;7952;48.396;12.806;2023-02-10T12:46:45;10.80;44.70
15705;DHT22;7952;48.396;12.806;2023-02-10T12:52:26;10.70;44.70
15705;DHT22;7952;48.396;12.806;2023-02-10T12:55:13;10.70;44.70
15705;DHT22;7952;48.396;12.806;2023-02-10T12:57:55;10.70;44.70
15705;DHT22;7952;48.396;12.806;2023-02-10T13:00:34;10.70;44.70
15705;DHT22;7952;48.396;12.806;2023-02-10T13:03:05;10.70;44.40
15705;DHT22;7952;48.396;12.806;2023-02-10T13:05:38;10.60;44.60
15705;DHT22;7952;48.396;12.806;2023-02-10T13:08:14;10.60;44.70
15705;DHT22;7952;48.396;12.806;2023-02-10T13:10:52;10.60;44.70
15705;DHT22;7952;48.396;12.806;2023-02-10T13:13:39;10.50;44.50
15705;DHT22;7952;48.396;12.806;2023-02-10T13:16:12;10.50;44.50
15705;DHT22;7952;48.396;12.806;2023-02-10T13:18:51;10.40;44.50
15705;DHT22;7952;48.396;12.806;2023-02-10T13:24:46;10.30;44.40
15705;DHT22;7952;48.396;12.806;2023-02-10T13:27:24;10.20;44.40
15705;DHT22;7952;48.396;12.806;2023-02-10T13:35:16;10.10;44.40
15705;DHT22;7952;48.396;12.806;2023-02-10T13:37:55;10.10;44.50
15705;DHT22;7952;48.396;12.806;2023-02-10T13:40:28;10.10;44.50
15705;DHT22;7952;48.396;12.806;2023-02-10T13:43:00;10.00;44.40
15705;DHT22;7952;48.396;12.806;2023-02-10T13:45:31;10.00;44.40
15705;DHT22;7952;48.396;12.806;2023-02-10T13:48:03;9.90;45.30
15705;DHT22;7952;48.396;12.806;2023-02-10T13:50:48;9.90;45.40
15705;DHT22;7952;48.396;12.806;2023-02-10T13:59:01;9.80;45.40
15705;DHT22;7952;48.396;12.806;2023-02-10T14:06:49;9.60;45.30
15705;DHT22;7952;48.396;12.806;2023-02-10T14:11:46;9.60;45.40
15705;DHT22;7952;48.396;12.806;2023-02-10T14:16:45;9.50;45.40
15705;DHT22;7952;48.396;12.806;2023-02-10T14:21:56;9.50;45.40
15705;DHT22;7952;48.396;12.806;2023-02-10T14:24:34;9.40;45.40
15705;DHT22;7952;48.396;12.806;2023-02-10T14:27:02;9.40;45.40
15705;DHT22;7952;48.396;12.806;2023-02-10T14:29:31;9.30;45.40
15705;DHT22;7952;48.396;12.806;2023-02-10T14:32:00;9.30;45.40
15705;DHT22;7952;48.396;12.806;2023-02-10T14:34:32;9.20;45.40
15705;DHT22;7952;48.396;12.806;2023-02-10T14:37:01;9.20;45.40
15705;DHT22;7952;48.396;12.806;2023-02-10T14:39:29;9.10;45.40
15705;DHT22;7952;48.396;12.806;2023-02-10T14:41:58;9.10;45.50
15705;DHT22;7952;48.396;12.806;2023-02-10T14:44:40;9.00;45.40
15705;DHT22;7952;48.396;12.806;2023-02-10T14:47:15;9.00;45.50
15705;DHT22;7952;48.396;12.806;2023-02-10T14:49:41;8.90;45.50
15705;DHT22;7952;48.396;12.806;2023-02-10T14:52:26;8.90;45.50
15705;DHT22;7952;48.396;12.806;2023-02-10T14:54:52;8.80;45.50
15705;DHT22;7952;48.396;12.806;2023-02-10T14:57:23;8.80;45.60
15705;DHT22;7952;48.396;12.806;2023-02-10T14:59:58;8.70;45.60
15705;DHT22;7952;48.396;12.806;2023-02-10T15:02:27;8.70;45.60
15705;DHT22;7952;48.396;12.806;2023-02-10T15:04:56;8.60;45.50
15705;DHT22;7952;48.396;12.806;2023-02-10T15:07:31;8.60;45.60
15705;DHT22;7952;48.396;12.806;2023-02-10T15:10:05;8.50;45.50
15705;DHT22;7952;48.396;12.806;2023-02-10T15:12:34;8.50;45.60
15705;DHT22;7952;48.396;12.806;2023-02-10T15:17:43;8.40;45.60
15705;DHT22;7952;48.396;12.806;2023-02-10T15:22:43;8.30;45.70
15705;DHT22;7952;48.396;12.806;2023-02-10T15:28:00;8.10;45.70
15705;DHT22;7952;48.396;12.806;2023-02-10T15:30:28;8.10;45.70
15705;DHT22;7952;48.396;12.806;2023-02-10T15:32:56;8.00;45.70
15705;DHT22;7952;48.396;12.806;2023-02-10T15:35:22;8.00;45.70
15705;DHT22;7952;48.396;12.806;2023-02-10T15:37:49;7.90;45.70
15705;DHT22;7952;48.396;12.806;2023-02-10T15:40:25;7.80;45.70
15705;DHT22;7952;48.396;12.806;2023-02-10T15:43:05;7.80;45.80
15705;DHT22;7952;48.396;12.806;2023-02-10T15:45:31;7.70;45.70
15705;DHT22;7952;48.396;12.806;2023-02-10T15:48:05;7.60;45.70
15705;DHT22;7952;48.396;12.806;2023-02-10T15:50:32;7.50;45.70
15705;DHT22;7952;48.396;12.806;2023-02-10T15:52:59;7.50;45.80
15705;DHT22;7952;48.396;12.806;2023-02-10T15:55:30;7.40;45.80
15705;DHT22;7952;48.396;12.806;2023-02-10T15:57:57;7.30;45.80
15705;DHT22;7952;48.396;12.806;2023-02-10T16:00:30;7.20;45.80
15705;DHT22;7952;48.396;12.806;2023-02-10T16:02:57;7.20;45.80
15705;DHT22;7952;48.396;12.806;2023-02-10T16:05:23;7.10;45.80
15705;DHT22;7952;48.396;12.806;2023-02-10T16:07:50;7.00;45.80
15705;DHT22;7952;48.396;12.806;2023-02-10T16:10:19;6.90;45.80
15705;DHT22;7952;48.396;12.806;2023-02-10T16:12:45;6.90;45.90
15705;DHT22;7952;48.396;12.806;2023-02-10T16:15:15;6.80;45.90
15705;DHT22;7952;48.396;12.806;2023-02-10T16:17:43;6.70;45.90
15705;DHT22;7952;48.396;12.806;2023-02-10T16:20:19;6.60;45.90
15705;DHT22;7952;48.396;12.806;2023-02-10T16:22:46;6.50;45.90
15705;DHT22;7952;48.396;12.806;2023-02-10T16:25:12;6.40;45.90
15705;DHT22;7952;48.396;12.806;2023-02-10T16:27:38;6.30;46.00
15705;DHT22;7952;48.396;12.806;2023-02-10T16:30:04;6.20;46.00
15705;DHT22;7952;48.396;12.806;2023-02-10T16:32:30;6.10;46.00
15705;DHT22;7952;48.396;12.806;2023-02-10T16:34:55;6.10;46.10
15705;DHT22;7952;48.396;12.806;2023-02-10T16:37:21;6.00;46.10
15705;DHT22;7952;48.396;12.806;2023-02-10T16:39:48;5.90;46.00
15705;DHT22;7952;48.396;12.806;2023-02-10T16:42:14;5.80;46.00
15705;DHT22;7952;48.396;12.806;2023-02-10T16:44:39;5.70;46.10
15705;DHT22;7952;48.396;12.806;2023-02-10T16:47:05;5.60;46.10
15705;DHT22;7952;48.396;12.806;2023-02-10T16:49:30;5.60;46.10
15705;DHT22;7952;48.396;12.806;2023-02-10T16:51:56;5.50;46.20
15705;DHT22;7952;48.396;12.806;2023-02-10T16:54:21;5.40;46.20
15705;DHT22;7952;48.396;12.806;2023-02-10T16:56:48;5.30;46.20
15705;DHT22;7952;48.396;12.806;2023-02-10T16:59:16;5.30;46.30
15705;DHT22;7952;48.396;12.806;2023-02-10T17:01:43;5.20;46.20
15705;DHT22;7952;48.396;12.806;2023-02-10T17:04:09;5.10;46.20
15705;DHT22;7952;48.396;12.806;2023-02-10T17:06:44;5.10;46.20
15705;DHT22;7952;48.396;12.806;2023-02-10T17:09:19;5.00;46.10
15705;DHT22;7952;48.396;12.806;2023-02-10T17:11:45;5.00;46.20
15705;DHT22;7952;48.396;12.806;2023-02-10T17:14:11;4.90;46.20
15705;DHT22;7952;48.396;12.806;2023-02-10T17:16:39;4.80;46.20
15705;DHT22;7952;48.396;12.806;2023-02-10T17:19:06;4.70;46.20
15705;DHT22;7952;48.396;12.806;2023-02-10T17:21:33;4.70;46.30
15705;DHT22;7952;48.396;12.806;2023-02-10T17:24:00;4.70;46.40
15705;DHT22;7952;48.396;12.806;2023-02-10T17:26:25;4.60;46.30
15705;DHT22;7952;48.396;12.806;2023-02-10T17:28:51;4.60;46.30
15705;DHT22;7952;48.396;12.806;2023-02-10T17:31:19;4.50;46.30
15705;DHT22;7952;48.396;12.806;2023-02-10T17:33:45;4.50;46.30
15705;DHT22;7952;48.396;12.806;2023-02-10T17:36:20;4.40;46.30
15705;DHT22;7952;48.396;12.806;2023-02-10T17:38:46;4.40;46.40
15705;DHT22;7952;48.396;12.806;2023-02-10T17:41:17;4.30;46.40
15705;DHT22;7952;48.396;12.806;2023-02-10T17:43:43;4.30;46.40
15705;DHT22;7952;48.396;12.806;2023-02-10T17:46:12;4.30;46.40
15705;DHT22;7952;48.396;12.806;2023-02-10T17:48:38;4.20;46.40
15705;DHT22;7952;48.396;12.806;2023-02-10T17:51:05;4.20;46.40
15705;DHT22;7952;48.396;12.806;2023-02-10T17:53:32;4.20;47.10
15705;DHT22;7952;48.396;12.806;2023-02-10T17:55:57;4.10;46.40
15705;DHT22;7952;48.396;12.806;2023-02-10T17:58:23;4.10;46.40
15705;DHT22;7952;48.396;12.806;2023-02-10T18:00:49;4.10;46.50
15705;DHT22;7952;48.396;12.806;2023-02-10T18:03:14;4.10;46.50
15705;DHT22;7952;48.396;12.806;2023-02-10T18:05:40;4.00;46.30
15705;DHT22;7952;48.396;12.806;2023-02-10T18:08:10;4.00;46.30
15705;DHT22;7952;48.396;12.806;2023-02-10T18:10:37;4.00;46.30
15705;DHT22;7952;48.396;12.806;2023-02-10T18:13:03;4.00;46.30
15705;DHT22;7952;48.396;12.806;2023-02-10T18:15:29;3.90;46.20
15705;DHT22;7952;48.396;12.806;2023-02-10T18:17:54;3.90;46.30
15705;DHT22;7952;48.396;12.806;2023-02-10T18:20:20;3.90;46.30
15705;DHT22;7952;48.396;12.806;2023-02-10T18:22:46;3.90;46.30
15705;DHT22;7952;48.396;12.806;2023-02-10T18:25:13;3.80;46.20
15705;DHT22;7952;48.396;12.806;2023-02-10T18:27:39;3.80;46.20
15705;DHT22;7952;48.396;12.806;2023-02-10T18:30:05;3.80;46.10
15705;DHT22;7952;48.396;12.806;2023-02-10T18:32:36;3.80;46.20
15705;DHT22;7952;48.396;12.806;2023-02-10T18:35:02;3.70;46.10
15705;DHT22;7952;48.396;12.806;2023-02-10T18:37:27;3.70;46.10
15705;DHT22;7952;48.396;12.806;2023-02-10T18:39:53;3.70;46.20
15705;DHT22;7952;48.396;12.806;2023-02-10T18:42:22;3.70;46.20
15705;DHT22;7952;48.396;12.806;2023-02-10T18:44:47;3.60;46.20
15705;DHT22;7952;48.396;12.806;2023-02-10T18:47:13;3.60;46.20
15705;DHT22;7952;48.396;12.806;2023-02-10T18:49:39;3.60;46.80
15705;DHT22;7952;48.396;12.806;2023-02-10T18:52:04;3.60;46.20
15705;DHT22;7952;48.396;12.806;2023-02-10T18:54:30;3.50;46.20
15705;DHT22;7952;48.396;12.806;2023-02-10T18:56:55;3.50;46.20
15705;DHT22;7952;48.396;12.806;2023-02-10T18:59:21;3.50;46.20
15705;DHT22;7952;48.396;12.806;2023-02-10T19:01:50;3.50;46.30
15705;DHT22;7952;48.396;12.806;2023-02-10T19:04:15;3.50;46.30
15705;DHT22;7952;48.396;12.806;2023-02-10T19:06:41;3.50;46.30
15705;DHT22;7952;48.396;12.806;2023-02-10T19:09:07;3.40;46.20
15705;DHT22;7952;48.396;12.806;2023-02-10T19:11:32;3.40;46.20
15705;DHT22;7952;48.396;12.806;2023-02-10T19:13:58;3.40;46.20
15705;DHT22;7952;48.396;12.806;2023-02-10T19:16:24;3.40;46.20
15705;DHT22;7952;48.396;12.806;2023-02-10T19:18:50;3.30;46.10
15705;DHT22;7952;48.396;12.806;2023-02-10T19:21:16;3.30;46.10
15705;DHT22;7952;48.396;12.806;2023-02-10T19:23:42;3.20;46.10
15705;DHT22;7952;48.396;12.806;2023-02-10T19:26:10;3.20;46.10
15705;DHT22;7952;48.396;12.806;2023-02-10T19:28:36;3.20;46.20
15705;DHT22;7952;48.396;12.806;2023-02-10T19:31:06;3.20;46.20
15705;DHT22;7952;48.396;12.806;2023-02-10T19:33:32;3.10;46.20
15705;DHT22;7952;48.396;12.806;2023-02-10T19:35:58;3.10;46.20
15705;DHT22;7952;48.396;12.806;2023-02-10T19:38:25;3.10;46.30
15705;DHT22;7952;48.396;12.806;2023-02-10T19:43:31;3.00;46.30
15705;DHT22;7952;48.396;12.806;2023-02-10T19:45:57;3.10;46.40
15705;DHT22;7952;48.396;12.806;2023-02-10T19:48:22;3.10;46.40
15705;DHT22;7952;48.396;12.806;2023-02-10T19:50:48;3.10;46.40
15705;DHT22;7952;48.396;12.806;2023-02-10T19:53:14;3.10;46.30
15705;DHT22;7952;48.396;12.806;2023-02-10T19:55:39;3.10;46.40
15705;DHT22;7952;48.396;12.806;2023-02-10T19:58:05;3.10;46.30
15705;DHT22;7952;48.396;12.806;2023-02-10T20:00:31;3.10;46.30